EZS59GQ LFKJ-LSGG
Flight info
| Callsign | EZS59GQ |
|---|---|
| Flight time | 0h 50m |
| Altitude | 34000 |
| Route | LONSU M622 PIGOS DCT BARSO DCT IRMAR/N0389F280 DCT KINES |
| Aircraft | A320/M-SDE2E3FGHIJ1RWXYZ/LB1 |
Departure
| Time | 2026-04-23 23:17 |
|---|---|
| Airport | Ajaccio Napoléon Bonaparte airport (LFKJ) |
Arrival
| Time | 2026-04-24 00:07 |
|---|---|
| Airport | Geneva International Airport (LSGG) |
| Time | Latitude | Longitude | Altitude | Speed | Heading |
|---|---|---|---|---|---|
| 2026-04-23 23:02 | 41.91856 | 8.79504 | 26 ft | 0 kts | 345° |
| 2026-04-23 23:06 | 41.91855 | 8.79504 | 31 ft | 0 kts | 345° |
| 2026-04-23 23:09 | 41.91851 | 8.79505 | 30 ft | 2 kts | 345° |
| 2026-04-23 23:09 | 41.91835 | 8.79511 | 32 ft | 2 kts | 345° |
| 2026-04-23 23:09 | 41.91819 | 8.79517 | 31 ft | 2 kts | 348° |
| 2026-04-23 23:10 | 41.91802 | 8.79519 | 30 ft | 2 kts | 359° |
| 2026-04-23 23:10 | 41.91785 | 8.79520 | 30 ft | 2 kts | 359° |
| 2026-04-23 23:10 | 41.91768 | 8.79520 | 30 ft | 2 kts | 359° |
| 2026-04-23 23:10 | 41.91755 | 8.79520 | 31 ft | 0 kts | 18° |
| 2026-04-23 23:11 | 41.91756 | 8.79520 | 31 ft | 1 kts | 18° |
| 2026-04-23 23:11 | 41.91808 | 8.79551 | 31 ft | 16 kts | 25° |
| 2026-04-23 23:12 | 41.91935 | 8.79631 | 30 ft | 22 kts | 25° |
| 2026-04-23 23:12 | 41.92079 | 8.79721 | 30 ft | 23 kts | 25° |
| 2026-04-23 23:12 | 41.92229 | 8.79815 | 29 ft | 24 kts | 25° |
| 2026-04-23 23:12 | 41.92386 | 8.79912 | 27 ft | 25 kts | 24° |
| 2026-04-23 23:13 | 41.92548 | 8.80012 | 27 ft | 26 kts | 25° |
| 2026-04-23 23:13 | 41.92712 | 8.80115 | 30 ft | 20 kts | 27° |
| 2026-04-23 23:13 | 41.92818 | 8.80210 | 27 ft | 19 kts | 44° |
| 2026-04-23 23:13 | 41.92890 | 8.80312 | 28 ft | 7 kts | 46° |
| 2026-04-23 23:14 | 41.92919 | 8.80350 | 29 ft | 4 kts | 45° |
| 2026-04-23 23:14 | 41.92929 | 8.80364 | 30 ft | 0 kts | 45° |
| 2026-04-23 23:14 | 41.92930 | 8.80365 | 30 ft | 1 kts | 45° |
| 2026-04-23 23:14 | 41.92943 | 8.80382 | 30 ft | 4 kts | 45° |
| 2026-04-23 23:15 | 41.92959 | 8.80413 | 31 ft | 3 kts | 63° |
| 2026-04-23 23:15 | 41.92963 | 8.80433 | 31 ft | 3 kts | 78° |
| 2026-04-23 23:15 | 41.92960 | 8.80480 | 32 ft | 5 kts | 103° |
| 2026-04-23 23:15 | 41.92946 | 8.80524 | 32 ft | 7 kts | 120° |
| 2026-04-23 23:16 | 41.92888 | 8.80554 | 31 ft | 12 kts | 192° |
| 2026-04-23 23:16 | 41.92739 | 8.80466 | 27 ft | 54 kts | 205° |
| 2026-04-23 23:16 | 41.92150 | 8.80094 | 20 ft | 129 kts | 205° |
| 2026-04-23 23:16 | 41.91173 | 8.79484 | 229 ft | 166 kts | 206° |
| 2026-04-23 23:17 | 41.90175 | 8.78808 | 1133 ft | 157 kts | 206° |
| 2026-04-23 23:17 | 41.89246 | 8.78152 | 1939 ft | 147 kts | 207° |
| 2026-04-23 23:17 | 41.88325 | 8.77381 | 2342 ft | 167 kts | 214° |
| 2026-04-23 23:17 | 41.87316 | 8.76422 | 2682 ft | 189 kts | 215° |
| 2026-04-23 23:18 | 41.86185 | 8.75335 | 2983 ft | 212 kts | 215° |
| 2026-04-23 23:18 | 41.84911 | 8.74119 | 3348 ft | 237 kts | 215° |
| 2026-04-23 23:18 | 41.83495 | 8.72779 | 3802 ft | 260 kts | 214° |
| 2026-04-23 23:18 | 41.81977 | 8.71354 | 4559 ft | 270 kts | 214° |
| 2026-04-23 23:19 | 41.80415 | 8.69896 | 5434 ft | 276 kts | 214° |
| 2026-04-23 23:19 | 41.78832 | 8.68441 | 6283 ft | 282 kts | 213° |
| 2026-04-23 23:19 | 41.77190 | 8.66960 | 7115 ft | 288 kts | 212° |
| 2026-04-23 23:19 | 41.75542 | 8.65484 | 7935 ft | 292 kts | 212° |
| 2026-04-23 23:20 | 41.73857 | 8.63937 | 8770 ft | 297 kts | 218° |
| 2026-04-23 23:20 | 41.72549 | 8.61776 | 9573 ft | 303 kts | 245° |
| 2026-04-23 23:20 | 41.72060 | 8.59046 | 10371 ft | 304 kts | 272° |
| 2026-04-23 23:20 | 41.72491 | 8.56301 | 11138 ft | 302 kts | 297° |
| 2026-04-23 23:21 | 41.73496 | 8.53716 | 11429 ft | 325 kts | 302° |
| 2026-04-23 23:21 | 41.74635 | 8.51019 | 11939 ft | 337 kts | 302° |
| 2026-04-23 23:21 | 41.75817 | 8.48280 | 12656 ft | 342 kts | 303° |
| 2026-04-23 23:21 | 41.77014 | 8.45506 | 13423 ft | 345 kts | 302° |
| 2026-04-23 23:22 | 41.78217 | 8.42697 | 14153 ft | 349 kts | 302° |
| 2026-04-23 23:22 | 41.79407 | 8.39897 | 14813 ft | 352 kts | 302° |
| 2026-04-23 23:22 | 41.80613 | 8.37027 | 15480 ft | 355 kts | 302° |
| 2026-04-23 23:22 | 41.81891 | 8.34181 | 16137 ft | 356 kts | 308° |
| 2026-04-23 23:23 | 41.83554 | 8.31730 | 16805 ft | 356 kts | 321° |
| 2026-04-23 23:23 | 41.85587 | 8.29834 | 17485 ft | 356 kts | 334° |
| 2026-04-23 23:23 | 41.87882 | 8.28599 | 18125 ft | 357 kts | 346° |
| 2026-04-23 23:23 | 41.90315 | 8.27884 | 18718 ft | 359 kts | 349° |
| 2026-04-23 23:24 | 41.92772 | 8.27186 | 19265 ft | 363 kts | 349° |
| 2026-04-23 23:24 | 41.95253 | 8.26473 | 19808 ft | 366 kts | 348° |
| 2026-04-23 23:24 | 41.97723 | 8.25758 | 20347 ft | 369 kts | 348° |
| 2026-04-23 23:24 | 42.00247 | 8.25026 | 20887 ft | 372 kts | 348° |
| 2026-04-23 23:25 | 42.02793 | 8.24290 | 21417 ft | 375 kts | 349° |
| 2026-04-23 23:25 | 42.05358 | 8.23553 | 21937 ft | 378 kts | 349° |
| 2026-04-23 23:25 | 42.07942 | 8.22811 | 22448 ft | 381 kts | 349° |
| 2026-04-23 23:25 | 42.10545 | 8.22057 | 22956 ft | 384 kts | 349° |
| 2026-04-23 23:26 | 42.13167 | 8.21295 | 23460 ft | 387 kts | 349° |
| 2026-04-23 23:26 | 42.15812 | 8.20527 | 23921 ft | 390 kts | 349° |
| 2026-04-23 23:26 | 42.18480 | 8.19754 | 24331 ft | 392 kts | 349° |
| 2026-04-23 23:26 | 42.21121 | 8.18989 | 24747 ft | 395 kts | 348° |
| 2026-04-23 23:27 | 42.23849 | 8.18199 | 25163 ft | 397 kts | 348° |
| 2026-04-23 23:27 | 42.26557 | 8.17413 | 25570 ft | 399 kts | 348° |
| 2026-04-23 23:27 | 42.29244 | 8.16630 | 25972 ft | 401 kts | 348° |
| 2026-04-23 23:27 | 42.31979 | 8.15833 | 26360 ft | 403 kts | 348° |
| 2026-04-23 23:28 | 42.34736 | 8.15030 | 26755 ft | 406 kts | 348° |
| 2026-04-23 23:28 | 42.37501 | 8.14224 | 27147 ft | 408 kts | 348° |
| 2026-04-23 23:28 | 42.40283 | 8.13409 | 27521 ft | 410 kts | 348° |
| 2026-04-23 23:28 | 42.43076 | 8.12591 | 27907 ft | 412 kts | 348° |
| 2026-04-23 23:29 | 42.45888 | 8.11769 | 28281 ft | 414 kts | 348° |
| 2026-04-23 23:29 | 42.48712 | 8.10939 | 28646 ft | 417 kts | 347° |
| 2026-04-23 23:29 | 42.51555 | 8.10100 | 29021 ft | 419 kts | 347° |
| 2026-04-23 23:29 | 42.54415 | 8.09257 | 29383 ft | 421 kts | 347° |
| 2026-04-23 23:30 | 42.57286 | 8.08410 | 29744 ft | 423 kts | 347° |
| 2026-04-23 23:30 | 42.60169 | 8.07561 | 30097 ft | 425 kts | 347° |
| 2026-04-23 23:30 | 42.63074 | 8.06708 | 30409 ft | 427 kts | 347° |
| 2026-04-23 23:30 | 42.65954 | 8.05863 | 30687 ft | 429 kts | 347° |
| 2026-04-23 23:31 | 42.68876 | 8.05003 | 30969 ft | 431 kts | 347° |
| 2026-04-23 23:31 | 42.71812 | 8.04136 | 31241 ft | 432 kts | 347° |
| 2026-04-23 23:31 | 42.74762 | 8.03262 | 31504 ft | 434 kts | 347° |
| 2026-04-23 23:31 | 42.77663 | 8.02119 | 31807 ft | 435 kts | 339° |
| 2026-04-23 23:32 | 42.80399 | 8.00358 | 32174 ft | 435 kts | 331° |
| 2026-04-23 23:32 | 42.83038 | 7.98351 | 32539 ft | 434 kts | 332° |
| 2026-04-23 23:32 | 42.85677 | 7.96349 | 32899 ft | 433 kts | 332° |
| 2026-04-23 23:32 | 42.88312 | 7.94351 | 33221 ft | 434 kts | 332° |
| 2026-04-23 23:33 | 42.90947 | 7.92354 | 33550 ft | 434 kts | 332° |
| 2026-04-23 23:33 | 42.93559 | 7.90368 | 33916 ft | 433 kts | 332° |
| 2026-04-23 23:33 | 42.96192 | 7.88363 | 34133 ft | 433 kts | 332° |
| 2026-04-23 23:34 | 43.01188 | 7.84563 | 34168 ft | 419 kts | 332° |
| 2026-04-23 23:34 | 43.06261 | 7.80684 | 34171 ft | 417 kts | 332° |
| 2026-04-23 23:35 | 43.11323 | 7.76799 | 34171 ft | 416 kts | 331° |
| 2026-04-23 23:35 | 43.16327 | 7.72926 | 34162 ft | 416 kts | 332° |
| 2026-04-23 23:35 | 43.18961 | 7.71302 | 34165 ft | 417 kts | 343° |
| 2026-04-23 23:36 | 43.21757 | 7.70077 | 34164 ft | 425 kts | 343° |
| 2026-04-23 23:36 | 43.27521 | 7.67595 | 34159 ft | 441 kts | 343° |
| 2026-04-23 23:37 | 43.33472 | 7.65039 | 34161 ft | 453 kts | 343° |
| 2026-04-23 23:37 | 43.39474 | 7.62442 | 34155 ft | 455 kts | 343° |
| 2026-04-23 23:38 | 43.45522 | 7.59816 | 34151 ft | 456 kts | 343° |
| 2026-04-23 23:38 | 43.51591 | 7.57160 | 34152 ft | 458 kts | 343° |
| 2026-04-23 23:39 | 43.57675 | 7.54501 | 34151 ft | 459 kts | 343° |
| 2026-04-23 23:39 | 43.63765 | 7.51850 | 34150 ft | 459 kts | 343° |
| 2026-04-23 23:40 | 43.69812 | 7.49202 | 34158 ft | 459 kts | 343° |
| 2026-04-23 23:40 | 43.75902 | 7.46529 | 34160 ft | 459 kts | 343° |
| 2026-04-23 23:41 | 43.81927 | 7.43886 | 34160 ft | 459 kts | 343° |
| 2026-04-23 23:41 | 43.88080 | 7.41188 | 34158 ft | 459 kts | 343° |
| 2026-04-23 23:42 | 43.94168 | 7.38506 | 34158 ft | 459 kts | 343° |
| 2026-04-23 23:42 | 44.00221 | 7.35829 | 34151 ft | 459 kts | 343° |
| 2026-04-23 23:43 | 44.06308 | 7.33140 | 34156 ft | 459 kts | 343° |
| 2026-04-23 23:43 | 44.12398 | 7.30432 | 34157 ft | 459 kts | 343° |
| 2026-04-23 23:44 | 44.18485 | 7.27710 | 34161 ft | 459 kts | 343° |
| 2026-04-23 23:44 | 44.24583 | 7.24985 | 34150 ft | 460 kts | 343° |
| 2026-04-23 23:45 | 44.30685 | 7.22263 | 34149 ft | 460 kts | 343° |
| 2026-04-23 23:45 | 44.36797 | 7.19522 | 34151 ft | 461 kts | 343° |
| 2026-04-23 23:46 | 44.42912 | 7.16770 | 34149 ft | 462 kts | 344° |
| 2026-04-23 23:46 | 44.49005 | 7.14025 | 34153 ft | 463 kts | 343° |
| 2026-04-23 23:47 | 44.55147 | 7.11254 | 34150 ft | 464 kts | 343° |
| 2026-04-23 23:47 | 44.61299 | 7.08470 | 34154 ft | 464 kts | 343° |
| 2026-04-23 23:48 | 44.67453 | 7.05679 | 34161 ft | 465 kts | 343° |
| 2026-04-23 23:48 | 44.73419 | 7.02287 | 34161 ft | 467 kts | 329° |
| 2026-04-23 23:48 | 44.76169 | 6.99797 | 33976 ft | 470 kts | 329° |
| 2026-04-23 23:49 | 44.81669 | 6.94724 | 32037 ft | 470 kts | 329° |
| 2026-04-23 23:49 | 44.84398 | 6.92175 | 31719 ft | 471 kts | 328° |
| 2026-04-23 23:49 | 44.87137 | 6.89612 | 31149 ft | 474 kts | 328° |
| 2026-04-23 23:50 | 44.88960 | 6.87907 | 30788 ft | 475 kts | 328° |
| 2026-04-23 23:50 | 44.92659 | 6.84447 | 30028 ft | 478 kts | 328° |
| 2026-04-23 23:50 | 44.95385 | 6.81899 | 29480 ft | 481 kts | 328° |
| 2026-04-23 23:50 | 44.98235 | 6.79240 | 28939 ft | 482 kts | 328° |
| 2026-04-23 23:51 | 45.00833 | 6.76815 | 28442 ft | 484 kts | 328° |
| 2026-04-23 23:51 | 45.03644 | 6.74190 | 27913 ft | 485 kts | 328° |
| 2026-04-23 23:51 | 45.06474 | 6.71549 | 27363 ft | 488 kts | 328° |
| 2026-04-23 23:51 | 45.09309 | 6.68901 | 26799 ft | 487 kts | 328° |
| 2026-04-23 23:52 | 45.12125 | 6.66268 | 26232 ft | 483 kts | 328° |
| 2026-04-23 23:52 | 45.14914 | 6.63651 | 25644 ft | 478 kts | 328° |
| 2026-04-23 23:52 | 45.16748 | 6.61922 | 25261 ft | 476 kts | 328° |
| 2026-04-23 23:52 | 45.19489 | 6.59331 | 24649 ft | 471 kts | 328° |
| 2026-04-23 23:53 | 45.22208 | 6.56761 | 24059 ft | 467 kts | 328° |
| 2026-04-23 23:53 | 45.24793 | 6.54321 | 23433 ft | 465 kts | 328° |
| 2026-04-23 23:53 | 45.27479 | 6.51786 | 22843 ft | 462 kts | 328° |
| 2026-04-23 23:53 | 45.30144 | 6.49264 | 22256 ft | 459 kts | 328° |
| 2026-04-23 23:54 | 45.32789 | 6.46751 | 21690 ft | 455 kts | 328° |
| 2026-04-23 23:54 | 45.35387 | 6.44283 | 21129 ft | 450 kts | 328° |
| 2026-04-23 23:54 | 45.37984 | 6.41815 | 20585 ft | 446 kts | 328° |
| 2026-04-23 23:54 | 45.40537 | 6.39387 | 20018 ft | 442 kts | 328° |
| 2026-04-23 23:55 | 45.43068 | 6.36977 | 19488 ft | 439 kts | 328° |
| 2026-04-23 23:55 | 45.45603 | 6.34562 | 18954 ft | 435 kts | 327° |
| 2026-04-23 23:55 | 45.48107 | 6.32172 | 18408 ft | 432 kts | 327° |
| 2026-04-23 23:55 | 45.50590 | 6.29794 | 17857 ft | 428 kts | 327° |
| 2026-04-23 23:56 | 45.52822 | 6.27656 | 17387 ft | 426 kts | 327° |
| 2026-04-23 23:56 | 45.55276 | 6.25308 | 16875 ft | 423 kts | 327° |
| 2026-04-23 23:56 | 45.57711 | 6.22980 | 16381 ft | 420 kts | 327° |
| 2026-04-23 23:56 | 45.60139 | 6.20655 | 15876 ft | 418 kts | 327° |
| 2026-04-23 23:57 | 45.62545 | 6.18353 | 15386 ft | 415 kts | 327° |
| 2026-04-23 23:57 | 45.64938 | 6.16056 | 14898 ft | 413 kts | 327° |
| 2026-04-23 23:57 | 45.67291 | 6.13791 | 14426 ft | 408 kts | 327° |
| 2026-04-23 23:57 | 45.69605 | 6.11562 | 14258 ft | 393 kts | 327° |
| 2026-04-23 23:58 | 45.71828 | 6.09420 | 14135 ft | 377 kts | 327° |
| 2026-04-23 23:58 | 45.73992 | 6.07333 | 13466 ft | 377 kts | 327° |
| 2026-04-23 23:58 | 45.76192 | 6.05208 | 12528 ft | 385 kts | 327° |
| 2026-04-23 23:58 | 45.78399 | 6.03074 | 12034 ft | 378 kts | 327° |
| 2026-04-23 23:59 | 45.80547 | 6.00992 | 11574 ft | 371 kts | 327° |
| 2026-04-23 23:59 | 45.82686 | 5.98916 | 11101 ft | 365 kts | 327° |
| 2026-04-23 23:59 | 45.84758 | 5.96904 | 10634 ft | 359 kts | 327° |
| 2026-04-23 23:59 | 45.86798 | 5.94926 | 10168 ft | 353 kts | 327° |
| 2026-04-24 00:00 | 45.88821 | 5.92966 | 9659 ft | 348 kts | 327° |
| 2026-04-24 00:00 | 45.90810 | 5.91039 | 9184 ft | 342 kts | 327° |
| 2026-04-24 00:00 | 45.92772 | 5.89139 | 8718 ft | 338 kts | 327° |
| 2026-04-24 00:00 | 45.94707 | 5.87261 | 8241 ft | 332 kts | 327° |
| 2026-04-24 00:01 | 45.96580 | 5.85445 | 7624 ft | 319 kts | 328° |
| 2026-04-24 00:01 | 45.98551 | 5.84107 | 7052 ft | 306 kts | 343° |
| 2026-04-24 00:01 | 46.00551 | 5.83548 | 6844 ft | 282 kts | 356° |
| 2026-04-24 00:01 | 46.02440 | 5.83619 | 6632 ft | 262 kts | 8° |
| 2026-04-24 00:02 | 46.04158 | 5.84192 | 6371 ft | 247 kts | 19° |
| 2026-04-24 00:02 | 46.05703 | 5.85181 | 6087 ft | 240 kts | 30° |
| 2026-04-24 00:02 | 46.07067 | 5.86538 | 5782 ft | 238 kts | 41° |
| 2026-04-24 00:02 | 46.08249 | 5.88183 | 5474 ft | 233 kts | 46° |
| 2026-04-24 00:03 | 46.09356 | 5.89793 | 5181 ft | 225 kts | 46° |
| 2026-04-24 00:03 | 46.10437 | 5.91364 | 4888 ft | 217 kts | 46° |
| 2026-04-24 00:03 | 46.11484 | 5.92889 | 4588 ft | 211 kts | 46° |
| 2026-04-24 00:03 | 46.12479 | 5.94337 | 4336 ft | 196 kts | 46° |
| 2026-04-24 00:04 | 46.13426 | 5.95717 | 4068 ft | 190 kts | 46° |
| 2026-04-24 00:04 | 46.14349 | 5.97064 | 3821 ft | 188 kts | 46° |
| 2026-04-24 00:04 | 46.15260 | 5.98393 | 3561 ft | 184 kts | 45° |
| 2026-04-24 00:04 | 46.16154 | 5.99697 | 3311 ft | 182 kts | 45° |
| 2026-04-24 00:05 | 46.17039 | 6.00990 | 3071 ft | 180 kts | 45° |
| 2026-04-24 00:05 | 46.17920 | 6.02277 | 2826 ft | 178 kts | 45° |
| 2026-04-24 00:05 | 46.18763 | 6.03510 | 2574 ft | 168 kts | 45° |
| 2026-04-24 00:05 | 46.19545 | 6.04654 | 2361 ft | 152 kts | 45° |
| 2026-04-24 00:06 | 46.20262 | 6.05702 | 2142 ft | 143 kts | 45° |
| 2026-04-24 00:06 | 46.20953 | 6.06714 | 1959 ft | 140 kts | 45° |
| 2026-04-24 00:06 | 46.21626 | 6.07696 | 1783 ft | 139 kts | 45° |
| 2026-04-24 00:06 | 46.22304 | 6.08682 | 1532 ft | 138 kts | 45° |
| 2026-04-24 00:07 | 46.22966 | 6.09661 | 1427 ft | 133 kts | 44° |
| 2026-04-24 00:07 | 46.23502 | 6.10451 | 1384 ft | 72 kts | 46° |
| 2026-04-24 00:07 | 46.23645 | 6.10703 | 1382 ft | 16 kts | 104° |
| 2026-04-24 00:07 | 46.23540 | 6.10706 | 1386 ft | 19 kts | 196° |
| 2026-04-24 00:08 | 46.23424 | 6.10650 | 1389 ft | 13 kts | 202° |
| 2026-04-24 00:08 | 46.23386 | 6.10620 | 1396 ft | 2 kts | 213° |
| 2026-04-24 00:08 | 46.23385 | 6.10619 | 1395 ft | 0 kts | 214° |
| 2026-04-24 00:08 | 46.23384 | 6.10618 | 1400 ft | 1 kts | 209° |
| 2026-04-24 00:09 | 46.23368 | 6.10613 | 1400 ft | 6 kts | 192° |
| 2026-04-24 00:09 | 46.23296 | 6.10608 | 1398 ft | 10 kts | 181° |
| 2026-04-24 00:09 | 46.23231 | 6.10610 | 1396 ft | 9 kts | 167° |
| 2026-04-24 00:09 | 46.23184 | 6.10649 | 1395 ft | 6 kts | 163° |
| 2026-04-24 00:10 | 46.23152 | 6.10670 | 1395 ft | 4 kts | 140° |
| 2026-04-24 00:10 | 46.23135 | 6.10694 | 1396 ft | 2 kts | 136° |
| 2026-04-24 00:10 | 46.23129 | 6.10702 | 1396 ft | 0 kts | 136° |
| 2026-04-24 00:10 | 46.23129 | 6.10703 | 1396 ft | 0 kts | 136° |